Time;durP1;ratioP1;P1;durP2;ratioP2;P2;SDS_P1;SDS_P2;PMS_P1;PMS_P2;Temp;Humidity;BMP_temperature;BMP_pressure;BME280_temperature;BME280_humidity;BME280_pressure;Samples;Min_cycle;Max_cycle;Signal;HPM_P1;HPM_P2
2023/06/17 00:00:30;;;;;;;4.28;2.60;;;30.00;99.90;;;;;;5085309;28;20021;-61
2023/06/17 00:02:56;;;;;;;3.53;1.92;;;30.00;99.90;;;;;;5083659;28;20272;-61
2023/06/17 00:05:24;;;;;;;4.25;1.30;;;29.90;99.90;;;;;;5084149;28;20029;-56
2023/06/17 00:07:52;;;;;;;5.45;1.58;;;29.90;99.90;;;;;;5088962;28;20220;-59
2023/06/17 00:10:18;;;;;;;6.18;4.32;;;30.00;99.90;;;;;;5101054;28;20039;-60
2023/06/17 00:12:45;;;;;;;6.68;2.97;;;30.00;99.90;;;;;;5107878;28;20279;-61
2023/06/17 00:15:12;;;;;;;10.82;2.92;;;30.00;99.90;;;;;;5108540;28;20052;-60
2023/06/17 00:17:44;;;;;;;7.70;2.38;;;30.00;99.90;;;;;;5107679;28;20054;-62
2023/06/17 00:20:12;;;;;;;5.38;2.10;;;30.00;99.90;;;;;;5108191;28;20032;-60
2023/06/17 00:22:39;;;;;;;8.13;2.45;;;30.00;99.90;;;;;;5107896;28;20024;-59
2023/06/17 00:25:07;;;;;;;2.92;1.33;;;29.90;99.90;;;;;;5107901;28;20353;-60
2023/06/17 00:27:33;;;;;;;3.63;1.30;;;29.80;99.90;;;;;;5107563;28;20371;-59
2023/06/17 00:30:00;;;;;;;2.70;1.40;;;29.80;99.90;;;;;;5105164;28;20529;-60
2023/06/17 00:32:27;;;;;;;2.78;0.98;;;29.80;99.90;;;;;;5097209;28;20320;-55
2023/06/17 00:34:55;;;;;;;3.00;0.98;;;29.80;99.90;;;;;;5107963;28;20103;-58
2023/06/17 00:37:22;;;;;;;4.07;1.23;;;29.80;99.90;;;;;;5107351;28;20028;-57
2023/06/17 00:39:49;;;;;;;59.55;54.83;;;29.80;99.90;;;;;;5107505;28;20051;-56
2023/06/17 00:42:15;;;;;;;22.80;20.95;;;29.80;99.90;;;;;;5107449;28;20378;-57
2023/06/17 00:44:43;;;;;;;9.38;8.18;;;29.80;99.90;;;;;;5107981;28;20027;-57
2023/06/17 00:47:11;;;;;;;7.60;6.82;;;29.80;99.90;;;;;;5089633;28;20024;-57
2023/06/17 00:49:40;;;;;;;4.95;3.67;;;29.80;99.90;;;;;;5087015;28;20043;-58
2023/06/17 00:52:11;;;;;;;4.00;1.80;;;29.70;99.90;;;;;;5085320;28;20020;-57
2023/06/17 00:54:39;;;;;;;4.15;1.60;;;29.70;99.90;;;;;;5083637;28;20063;-59
2023/06/17 00:57:13;;;;;;;2.60;1.27;;;29.70;99.90;;;;;;5085737;28;20024;-59
2023/06/17 00:59:42;;;;;;;3.53;1.35;;;29.60;99.90;;;;;;5086654;28;20340;-58
2023/06/17 01:02:09;;;;;;;2.55;1.15;;;29.50;99.90;;;;;;5085430;28;20040;-59
2023/06/17 01:04:38;;;;;;;2.92;1.10;;;29.60;99.90;;;;;;5080908;28;20398;-58
2023/06/17 01:07:26;;;;;;;3.17;1.23;;;29.60;99.90;;;;;;5086564;28;20047;-58
2023/06/17 01:10:07;;;;;;;3.22;1.10;;;29.60;99.90;;;;;;5086749;28;20200;-58
2023/06/17 01:12:34;;;;;;;4.72;1.75;;;29.70;99.90;;;;;;5086130;28;20279;-54
2023/06/17 01:15:01;;;;;;;6.35;4.88;;;29.60;99.90;;;;;;5085248;28;20022;-57
2023/06/17 01:17:28;;;;;;;7.55;2.40;;;29.70;99.90;;;;;;5090909;28;20100;-60
2023/06/17 01:19:56;;;;;;;4.22;1.92;;;29.60;99.90;;;;;;5066533;28;20037;-57
2023/06/17 01:22:26;;;;;;;4.07;1.70;;;29.70;99.90;;;;;;5065712;28;20016;-57
2023/06/17 01:24:56;;;;;;;4.70;1.35;;;29.70;99.90;;;;;;5066596;28;20032;-56
2023/06/17 01:27:23;;;;;;;4.45;1.65;;;29.70;99.90;;;;;;5065634;28;20039;-60
2023/06/17 01:29:49;;;;;;;4.18;1.42;;;29.70;99.90;;;;;;5069478;28;20024;-59
2023/06/17 01:32:16;;;;;;;2.30;1.00;;;29.70;99.90;;;;;;5084880;28;20256;-57
2023/06/17 01:34:51;;;;;;;3.97;1.23;;;29.60;99.90;;;;;;5085048;28;20040;-60
2023/06/17 01:37:35;;;;;;;1.63;0.93;;;29.60;99.90;;;;;;5084793;28;20331;-58
2023/06/17 01:40:05;;;;;;;4.78;1.17;;;29.60;99.90;;;;;;5085497;28;20036;-56
2023/06/17 01:42:34;;;;;;;5.13;1.10;;;29.60;99.90;;;;;;5087445;28;20026;-57
2023/06/17 01:45:06;;;;;;;4.45;0.98;;;29.60;99.90;;;;;;5083351;28;20033;-59
2023/06/17 01:47:32;;;;;;;5.53;1.00;;;29.60;99.90;;;;;;5065768;28;20355;-56
2023/06/17 01:50:01;;;;;;;3.47;1.10;;;29.70;99.90;;;;;;5065529;28;20039;-58
2023/06/17 01:52:27;;;;;;;4.07;1.25;;;29.80;99.90;;;;;;5064345;28;20084;-58
2023/06/17 01:54:54;;;;;;;5.18;1.90;;;29.90;99.90;;;;;;5064367;28;20078;-59
2023/06/17 01:57:21;;;;;;;4.40;1.60;;;29.90;99.90;;;;;;5064473;28;20037;-59
2023/06/17 01:59:47;;;;;;;6.15;3.47;;;30.00;99.90;;;;;;5063339;28;20036;-59
2023/06/17 02:02:15;;;;;;;4.80;2.95;;;29.80;99.90;;;;;;5063583;28;20024;-59
2023/06/17 02:04:41;;;;;;;6.80;2.72;;;29.80;99.90;;;;;;5063541;28;20027;-58
2023/06/17 02:07:10;;;;;;;5.35;3.05;;;29.70;99.90;;;;;;5063485;28;20085;-59
2023/06/17 02:09:37;;;;;;;7.60;2.80;;;29.60;99.90;;;;;;5064391;28;20064;-58
2023/06/17 02:12:06;;;;;;;9.77;4.40;;;29.40;99.90;;;;;;5064456;28;20055;-59
2023/06/17 02:14:33;;;;;;;7.70;2.72;;;29.30;99.90;;;;;;5065132;28;20102;-59
2023/06/17 02:17:00;;;;;;;4.93;2.05;;;29.20;99.90;;;;;;5065542;28;20027;-59
2023/06/17 02:19:28;;;;;;;4.07;1.83;;;29.10;99.90;;;;;;5065227;28;20025;-57
2023/06/17 02:21:55;;;;;;;3.90;1.70;;;29.00;99.90;;;;;;5065394;28;20320;-56
2023/06/17 02:24:22;;;;;;;2.30;1.38;;;28.90;99.90;;;;;;5065124;28;20033;-60
2023/06/17 02:26:50;;;;;;;2.22;1.30;;;28.80;99.90;;;;;;5065356;28;20025;-58
2023/06/17 02:29:17;;;;;;;2.78;1.13;;;28.70;99.90;;;;;;5064918;28;20076;-52
2023/06/17 02:31:43;;;;;;;2.78;1.10;;;28.60;99.90;;;;;;5065371;28;20332;-53
2023/06/17 02:34:10;;;;;;;2.78;1.20;;;28.60;99.90;;;;;;5064044;28;20029;-53
2023/06/17 02:36:38;;;;;;;4.93;1.50;;;28.50;99.90;;;;;;5065177;28;20089;-55
2023/06/17 02:39:07;;;;;;;3.70;1.80;;;28.50;99.90;;;;;;5064573;28;20064;-54
2023/06/17 02:41:33;;;;;;;7.32;2.80;;;28.50;99.90;;;;;;5065072;28;20036;-56
2023/06/17 02:44:00;;;;;;;5.47;2.92;;;28.50;99.90;;;;;;5064600;28;20023;-57
2023/06/17 02:46:27;;;;;;;6.65;3.40;;;28.50;99.90;;;;;;5064713;28;20103;-60
2023/06/17 02:48:54;;;;;;;5.80;3.20;;;28.50;99.90;;;;;;5064642;28;20032;-56
2023/06/17 02:51:22;;;;;;;5.38;2.30;;;28.40;99.90;;;;;;5064775;28;20021;-57
2023/06/17 02:53:50;;;;;;;4.60;2.00;;;28.40;99.90;;;;;;5064768;28;20036;-58
2023/06/17 02:56:17;;;;;;;6.57;3.30;;;28.40;99.90;;;;;;5064640;28;20024;-57
2023/06/17 02:58:45;;;;;;;6.35;3.17;;;28.40;99.90;;;;;;5064469;28;20013;-59
2023/06/17 03:01:12;;;;;;;4.55;2.35;;;28.30;99.90;;;;;;5064309;28;20140;-60
2023/06/17 03:03:41;;;;;;;6.45;2.72;;;28.40;99.90;;;;;;5064366;28;20305;-52
2023/06/17 03:06:09;;;;;;;5.70;2.30;;;28.30;99.90;;;;;;5064328;28;20233;-55
2023/06/17 03:08:40;;;;;;;5.20;3.53;;;28.30;99.90;;;;;;5064293;28;20040;-58
2023/06/17 03:11:08;;;;;;;7.35;2.97;;;28.20;99.90;;;;;;5064288;28;20337;-59
2023/06/17 03:13:34;;;;;;;7.22;3.47;;;28.20;99.90;;;;;;5064105;28;20048;-60
2023/06/17 03:16:02;;;;;;;11.48;4.75;;;28.20;99.90;;;;;;5064265;28;20024;-60
2023/06/17 03:18:29;;;;;;;8.05;4.22;;;28.20;99.90;;;;;;5063968;28;20037;-60
2023/06/17 03:20:56;;;;;;;10.25;3.85;;;28.20;99.90;;;;;;5064114;28;20037;-59
2023/06/17 03:23:23;;;;;;;8.25;3.78;;;28.20;99.90;;;;;;5064028;28;20040;-59
2023/06/17 03:25:50;;;;;;;11.10;4.22;;;28.20;99.90;;;;;;5064089;28;20034;-60
2023/06/17 03:28:18;;;;;;;8.10;4.05;;;28.20;99.90;;;;;;5063760;28;20133;-61
2023/06/17 03:30:45;;;;;;;10.73;5.25;;;28.10;99.90;;;;;;5063979;28;20025;-52
2023/06/17 03:33:14;;;;;;;14.25;7.35;;;28.10;99.90;;;;;;5063918;28;20048;-59
2023/06/17 03:35:41;;;;;;;15.23;6.63;;;28.10;99.90;;;;;;5063759;28;20059;-58
2023/06/17 03:38:09;;;;;;;21.80;11.43;;;28.10;99.90;;;;;;5063613;28;20316;-58
2023/06/17 03:40:36;;;;;;;23.17;11.23;;;28.10;99.90;;;;;;5063787;28;20036;-56
2023/06/17 03:43:03;;;;;;;22.42;9.73;;;28.10;99.90;;;;;;5063653;28;20187;-53
2023/06/17 03:45:30;;;;;;;19.77;7.55;;;28.10;99.90;;;;;;5063667;28;20025;-54
2023/06/17 03:47:59;;;;;;;12.05;5.78;;;28.00;99.90;;;;;;5063587;28;20043;-54
2023/06/17 03:50:26;;;;;;;12.95;4.50;;;28.10;99.90;;;;;;5063571;28;20039;-58
2023/06/17 03:52:52;;;;;;;6.82;3.65;;;28.10;99.90;;;;;;5063775;28;20024;-58
2023/06/17 03:55:19;;;;;;;8.40;3.47;;;28.00;99.90;;;;;;5063692;28;20024;-58
2023/06/17 03:57:45;;;;;;;5.57;2.72;;;28.00;99.90;;;;;;5063383;28;20028;-56
2023/06/17 04:00:13;;;;;;;5.35;2.00;;;28.00;99.90;;;;;;5063507;28;20087;-57
2023/06/17 04:02:45;;;;;;;5.78;1.92;;;28.00;99.90;;;;;;5063622;28;20051;-59
2023/06/17 04:05:13;;;;;;;5.88;3.35;;;28.00;99.90;;;;;;5063448;28;20089;-58
2023/06/17 04:07:40;;;;;;;8.85;3.45;;;28.00;99.90;;;;;;5063791;28;20040;-54
2023/06/17 04:10:08;;;;;;;9.05;3.72;;;28.00;99.90;;;;;;5063355;28;20044;-55
2023/06/17 04:12:38;;;;;;;6.43;3.38;;;28.00;99.90;;;;;;5063330;28;20040;-60
2023/06/17 04:15:09;;;;;;;5.60;2.67;;;28.00;99.90;;;;;;5063392;28;20056;-56
2023/06/17 04:17:37;;;;;;;5.07;2.50;;;28.00;99.90;;;;;;5063350;28;20028;-54
2023/06/17 04:20:10;;;;;;;8.65;2.03;;;28.00;99.90;;;;;;5063236;28;20021;-59
2023/06/17 04:22:39;;;;;;;5.07;1.60;;;28.00;99.90;;;;;;5063716;28;20104;-56
2023/06/17 04:25:06;;;;;;;3.47;1.58;;;28.00;99.90;;;;;;5063043;28;20082;-58
2023/06/17 04:27:33;;;;;;;4.75;1.52;;;28.00;99.90;;;;;;5063348;28;20101;-56
2023/06/17 04:30:01;;;;;;;6.10;3.70;;;28.00;99.90;;;;;;5063396;28;20107;-56
2023/06/17 04:32:28;;;;;;;3.53;2.97;;;28.00;99.90;;;;;;5063206;28;20105;-56
2023/06/17 04:34:54;;;;;;;4.47;2.40;;;28.00;99.90;;;;;;5063343;28;20023;-55
2023/06/17 04:37:22;;;;;;;5.50;2.15;;;28.00;99.90;;;;;;5063725;28;20047;-53
2023/06/17 04:39:48;;;;;;;5.72;1.40;;;28.00;99.90;;;;;;5063176;28;20025;-49
2023/06/17 04:42:16;;;;;;;5.55;1.10;;;28.00;99.90;;;;;;5063676;28;20096;-58
2023/06/17 04:44:43;;;;;;;4.75;1.10;;;28.00;99.90;;;;;;5063213;28;20017;-59
2023/06/17 04:47:11;;;;;;;4.82;0.70;;;28.00;99.90;;;;;;5063587;28;20100;-54
2023/06/17 04:49:41;;;;;;;1.90;0.50;;;28.00;99.90;;;;;;5063146;28;20040;-59
2023/06/17 04:52:08;;;;;;;2.05;0.52;;;27.90;99.90;;;;;;5063661;28;20044;-56
2023/06/17 04:54:35;;;;;;;2.67;0.43;;;28.00;99.90;;;;;;5062916;28;20028;-57
2023/06/17 04:57:02;;;;;;;1.42;0.60;;;27.90;99.90;;;;;;5065090;28;20021;-57
2023/06/17 04:59:29;;;;;;;3.53;0.75;;;28.00;99.90;;;;;;5066791;28;20197;-60
2023/06/17 05:01:56;;;;;;;2.47;0.70;;;28.00;99.90;;;;;;5066935;28;20256;-58
2023/06/17 05:04:22;;;;;;;3.30;1.70;;;28.00;99.90;;;;;;5066392;28;20032;-56
2023/06/17 05:06:50;;;;;;;6.05;2.65;;;28.00;99.90;;;;;;5065771;28;20024;-57
2023/06/17 05:09:16;;;;;;;7.13;3.22;;;27.90;99.90;;;;;;5066011;28;20124;-52
2023/06/17 05:11:43;;;;;;;5.60;2.88;;;27.90;99.90;;;;;;5066317;28;20052;-55
2023/06/17 05:14:10;;;;;;;6.90;2.90;;;28.00;99.90;;;;;;5065875;28;20390;-48
2023/06/17 05:16:36;;;;;;;4.35;2.47;;;28.00;99.90;;;;;;5065955;28;20087;-56
2023/06/17 05:19:03;;;;;;;6.57;2.38;;;27.90;99.90;;;;;;5066276;28;20044;-55
2023/06/17 05:21:30;;;;;;;5.97;2.35;;;27.90;99.90;;;;;;5066720;28;20067;-53
2023/06/17 05:23:57;;;;;;;6.25;2.30;;;27.90;99.90;;;;;;5066038;28;20025;-53
2023/06/17 05:26:24;;;;;;;6.65;2.70;;;27.90;99.90;;;;;;5065944;28;20051;-50
2023/06/17 05:28:50;;;;;;;5.72;2.10;;;27.90;99.90;;;;;;5066212;28;20327;-55
2023/06/17 05:31:17;;;;;;;6.03;2.17;;;28.00;99.90;;;;;;5066087;28;20044;-52
2023/06/17 05:33:43;;;;;;;3.95;2.00;;;28.00;99.90;;;;;;5065799;28;20062;-50
2023/06/17 05:36:10;;;;;;;3.92;1.50;;;27.90;99.90;;;;;;5066228;28;20020;-50
2023/06/17 05:38:36;;;;;;;4.90;1.30;;;27.90;99.90;;;;;;5065598;28;20044;-55
2023/06/17 05:41:03;;;;;;;4.72;2.15;;;28.00;99.90;;;;;;5065814;28;20150;-49
2023/06/17 05:43:30;;;;;;;6.00;2.10;;;28.00;99.90;;;;;;5065710;28;20059;-58
2023/06/17 05:45:56;;;;;;;3.83;1.30;;;28.00;99.90;;;;;;5065502;28;20036;-51
2023/06/17 05:48:23;;;;;;;1.45;0.93;;;28.00;99.90;;;;;;5065298;28;20023;-52
2023/06/17 05:50:49;;;;;;;4.85;1.00;;;28.00;99.90;;;;;;5065582;28;20021;-54
2023/06/17 05:53:17;;;;;;;3.20;0.82;;;27.90;99.90;;;;;;5065728;28;20048;-49
2023/06/17 05:55:44;;;;;;;2.80;0.75;;;27.90;99.90;;;;;;5065442;28;20029;-50
2023/06/17 05:58:10;;;;;;;3.38;0.80;;;27.90;99.90;;;;;;5065516;28;20135;-49
2023/06/17 06:00:37;;;;;;;1.55;0.50;;;27.90;99.90;;;;;;5065316;28;20071;-57
2023/06/17 06:03:03;;;;;;;2.03;0.63;;;27.90;99.90;;;;;;5065138;28;20017;-52
2023/06/17 06:05:31;;;;;;;4.65;0.80;;;27.90;99.90;;;;;;5065381;28;20032;-53
2023/06/17 06:07:57;;;;;;;2.00;0.68;;;27.90;99.90;;;;;;5064088;28;20096;-51
2023/06/17 06:10:27;;;;;;;2.15;1.02;;;27.90;99.90;;;;;;5064632;28;20110;-57
2023/06/17 06:12:54;;;;;;;3.28;0.70;;;27.90;99.90;;;;;;5065462;28;20066;-57
2023/06/17 06:15:21;;;;;;;2.45;0.80;;;27.90;99.90;;;;;;5064891;28;20114;-56
2023/06/17 06:17:47;;;;;;;0.73;0.30;;;27.90;99.90;;;;;;5079527;28;20070;-55
2023/06/17 06:20:14;;;;;;;3.53;0.68;;;27.70;99.90;;;;;;5088010;28;20020;-56
2023/06/17 06:22:40;;;;;;;2.08;0.47;;;27.60;99.90;;;;;;5084693;28;20040;-55
2023/06/17 06:25:07;;;;;;;1.63;0.20;;;27.50;99.90;;;;;;5087518;28;20038;-58
2023/06/17 06:27:34;;;;;;;3.03;0.20;;;27.60;99.90;;;;;;5090535;28;20035;-53
2023/06/17 06:30:00;;;;;;;2.60;0.30;;;27.60;99.90;;;;;;5084814;28;20374;-56
2023/06/17 06:32:27;;;;;;;3.45;0.30;;;27.70;99.90;;;;;;5075040;28;20327;-54
2023/06/17 06:34:53;;;;;;;2.30;0.28;;;27.90;99.90;;;;;;5084999;28;20013;-55
2023/06/17 06:37:19;;;;;;;1.35;0.20;;;27.90;99.90;;;;;;5078812;28;20248;-54
2023/06/17 06:39:46;;;;;;;3.13;0.17;;;28.00;99.90;;;;;;5079908;28;20042;-52
2023/06/17 06:42:13;;;;;;;1.98;0.20;;;28.00;99.90;;;;;;5084146;28;20105;-55
2023/06/17 06:44:39;;;;;;;3.80;0.30;;;28.10;99.90;;;;;;5076460;28;20066;-53
2023/06/17 06:47:06;;;;;;;1.55;0.20;;;28.20;99.90;;;;;;5071966;28;20333;-56
2023/06/17 06:49:33;;;;;;;3.03;0.30;;;28.20;99.90;;;;;;5063839;28;20063;-57
2023/06/17 06:51:59;;;;;;;1.23;0.10;;;28.30;99.90;;;;;;5082438;28;20053;-55
2023/06/17 06:54:26;;;;;;;1.38;0.30;;;28.40;99.90;;;;;;5070753;28;20077;-53
2023/06/17 06:56:52;;;;;;;2.97;0.40;;;28.50;99.90;;;;;;5064452;28;20025;-53
2023/06/17 06:59:19;;;;;;;0.85;0.10;;;28.60;99.90;;;;;;5064183;28;20043;-55
2023/06/17 07:01:45;;;;;;;0.80;0.10;;;28.50;99.90;;;;;;5064658;28;20058;-55
2023/06/17 07:04:11;;;;;;;2.53;0.20;;;28.60;99.90;;;;;;5064296;28;20036;-55
2023/06/17 07:06:38;;;;;;;2.75;0.40;;;28.60;99.90;;;;;;5064746;28;20048;-54
2023/06/17 07:09:04;;;;;;;6.30;4.28;;;28.60;99.90;;;;;;5064095;28;20024;-53
2023/06/17 07:11:31;;;;;;;36.58;33.03;;;28.70;99.90;;;;;;5064011;28;20143;-52
2023/06/17 07:13:58;;;;;;;24.10;19.40;;;28.70;99.90;;;;;;5065464;28;20385;-55
2023/06/17 07:16:24;;;;;;;5.60;3.85;;;28.80;99.90;;;;;;5079418;28;20028;-56
2023/06/17 07:18:51;;;;;;;3.67;1.88;;;28.90;99.90;;;;;;5078857;28;20028;-54
2023/06/17 07:21:17;;;;;;;4.40;1.90;;;28.90;99.90;;;;;;5084057;28;20032;-57
2023/06/17 07:23:43;;;;;;;5.43;1.20;;;28.80;99.90;;;;;;5074392;28;20012;-53
2023/06/17 07:26:10;;;;;;;1.98;1.35;;;28.80;99.90;;;;;;5083893;28;20028;-53
2023/06/17 07:28:36;;;;;;;3.42;0.80;;;28.80;99.90;;;;;;5067213;28;20036;-54
2023/06/17 07:31:03;;;;;;;3.17;0.80;;;28.80;99.90;;;;;;5064759;28;20020;-55
2023/06/17 07:33:30;;;;;;;6.60;0.60;;;28.80;99.90;;;;;;5082985;28;20028;-56
2023/06/17 07:35:56;;;;;;;1.45;0.32;;;28.80;99.90;;;;;;5083993;28;20044;-53
2023/06/17 07:38:24;;;;;;;3.75;1.17;;;28.80;99.90;;;;;;5082814;28;20020;-56
2023/06/17 07:40:51;;;;;;;7.72;4.97;;;28.80;99.90;;;;;;5083786;28;20025;-52
2023/06/17 07:43:17;;;;;;;2.78;0.40;;;28.80;99.90;;;;;;5083716;28;20051;-55
2023/06/17 07:45:43;;;;;;;2.92;0.63;;;28.80;99.90;;;;;;5083694;28;20048;-54
2023/06/17 07:48:10;;;;;;;1.70;0.40;;;28.80;99.90;;;;;;5083599;28;20024;-52
2023/06/17 07:50:36;;;;;;;3.88;0.55;;;28.90;99.90;;;;;;5083688;28;20035;-56
2023/06/17 07:53:03;;;;;;;1.63;0.40;;;28.90;99.90;;;;;;5083418;28;20021;-56
2023/06/17 07:55:30;;;;;;;6.05;1.67;;;28.90;99.90;;;;;;5083198;28;20029;-51
2023/06/17 07:57:56;;;;;;;2.67;0.77;;;29.00;99.90;;;;;;5083032;28;20024;-52
2023/06/17 08:00:23;;;;;;;2.28;0.38;;;29.00;99.90;;;;;;5083103;28;20052;-55
2023/06/17 08:02:49;;;;;;;1.60;0.30;;;29.00;99.90;;;;;;5083439;28;20013;-54
2023/06/17 08:05:16;;;;;;;4.45;0.38;;;29.00;99.90;;;;;;5083572;28;20223;-57
2023/06/17 08:07:42;;;;;;;3.55;0.63;;;29.10;99.90;;;;;;5083481;28;20123;-55
2023/06/17 08:10:09;;;;;;;3.80;0.50;;;29.10;99.90;;;;;;5083221;28;20260;-55
2023/06/17 08:12:36;;;;;;;4.43;0.60;;;29.10;99.90;;;;;;5083301;28;20036;-55
2023/06/17 08:15:03;;;;;;;1.98;0.30;;;29.20;99.90;;;;;;5083448;28;20024;-54
2023/06/17 08:17:29;;;;;;;2.63;0.50;;;29.20;99.90;;;;;;5083517;28;20024;-55
2023/06/17 08:19:56;;;;;;;9.48;0.57;;;29.20;99.90;;;;;;5083394;28;20216;-53
2023/06/17 08:22:23;;;;;;;4.72;0.40;;;29.30;99.90;;;;;;5063792;28;20297;-52
2023/06/17 08:24:49;;;;;;;3.50;0.60;;;29.50;99.90;;;;;;5063607;28;20029;-54
2023/06/17 08:27:16;;;;;;;1.98;0.50;;;29.60;99.90;;;;;;5063231;28;20348;-51
2023/06/17 08:29:42;;;;;;;4.20;0.60;;;29.70;99.90;;;;;;5063407;28;20259;-54
2023/06/17 08:32:09;;;;;;;6.95;0.55;;;29.60;99.90;;;;;;5065689;28;20043;-55
2023/06/17 08:34:36;;;;;;;2.90;0.82;;;29.60;99.90;;;;;;5067145;28;20024;-54
2023/06/17 08:37:03;;;;;;;2.47;0.77;;;29.60;99.90;;;;;;5067589;28;20029;-51
2023/06/17 08:39:31;;;;;;;1.48;0.40;;;29.50;99.90;;;;;;5067257;28;20084;-56
2023/06/17 08:41:58;;;;;;;6.18;0.75;;;29.50;99.90;;;;;;5067375;28;20024;-53
2023/06/17 08:44:28;;;;;;;3.08;0.40;;;29.40;99.90;;;;;;5067075;28;20016;-56
2023/06/17 08:46:59;;;;;;;5.18;0.57;;;29.30;99.90;;;;;;5067121;28;20024;-56
2023/06/17 08:49:28;;;;;;;4.30;0.50;;;29.20;99.90;;;;;;5066834;28;20268;-55
2023/06/17 08:51:55;;;;;;;2.92;0.45;;;29.10;99.90;;;;;;5067365;28;20032;-52
2023/06/17 08:54:22;;;;;;;5.57;2.33;;;29.10;99.90;;;;;;5066855;28;20040;-55
2023/06/17 08:56:49;;;;;;;12.35;7.47;;;29.00;99.90;;;;;;5067078;28;20055;-55
2023/06/17 08:59:16;;;;;;;7.93;5.55;;;29.00;99.90;;;;;;5066742;28;20070;-55
2023/06/17 09:01:44;;;;;;;7.47;3.80;;;28.90;99.90;;;;;;5067055;28;20112;-56
2023/06/17 09:04:13;;;;;;;3.55;2.10;;;28.90;99.90;;;;;;5066555;28;20044;-58
2023/06/17 09:06:40;;;;;;;2.90;1.48;;;28.80;99.90;;;;;;5067031;28;20027;-62
2023/06/17 09:09:06;;;;;;;2.38;0.95;;;28.70;99.90;;;;;;5066616;28;20390;-57
2023/06/17 09:11:33;;;;;;;2.53;1.20;;;28.60;99.90;;;;;;5066694;28;20208;-56
2023/06/17 09:14:02;;;;;;;5.57;1.20;;;28.50;99.90;;;;;;5066624;28;20036;-55
2023/06/17 09:16:29;;;;;;;4.45;1.15;;;28.50;99.90;;;;;;5066581;28;20033;-53
2023/06/17 09:18:57;;;;;;;3.78;1.08;;;28.50;99.90;;;;;;5066251;28;20037;-55
2023/06/17 09:21:25;;;;;;;4.50;0.85;;;28.40;99.90;;;;;;5066616;28;20021;-56
2023/06/17 09:23:57;;;;;;;2.78;0.98;;;28.40;99.90;;;;;;5066362;28;20080;-51
2023/06/17 09:26:29;;;;;;;2.85;1.80;;;28.30;99.90;;;;;;5066553;28;20041;-55
2023/06/17 09:29:05;;;;;;;6.25;1.35;;;28.30;99.90;;;;;;5066235;28;20029;-58
2023/06/17 09:31:33;;;;;;;3.75;1.45;;;28.30;99.90;;;;;;5066386;28;20037;-57
2023/06/17 09:34:04;;;;;;;2.50;0.95;;;28.20;99.90;;;;;;5066258;28;20029;-58
2023/06/17 09:36:30;;;;;;;3.88;0.70;;;28.20;99.90;;;;;;5066418;28;20040;-56
2023/06/17 09:38:57;;;;;;;3.17;0.70;;;28.20;99.90;;;;;;5065894;28;20036;-58
2023/06/17 09:41:24;;;;;;;1.30;0.40;;;28.20;99.90;;;;;;5066340;28;20052;-58
2023/06/17 09:43:54;;;;;;;2.10;0.40;;;28.20;99.90;;;;;;5065781;28;20301;-58
2023/06/17 09:46:29;;;;;;;1.77;0.40;;;28.20;99.90;;;;;;5066071;28;20041;-59
2023/06/17 09:48:59;;;;;;;6.80;0.80;;;28.10;99.90;;;;;;5065933;28;20056;-59
2023/06/17 09:51:27;;;;;;;3.10;0.50;;;28.10;99.90;;;;;;5065981;28;20228;-61
2023/06/17 09:53:55;;;;;;;1.75;0.52;;;28.10;99.90;;;;;;5065801;28;20025;-61
2023/06/17 09:56:22;;;;;;;3.85;0.75;;;28.10;99.90;;;;;;5065927;28;20033;-54
2023/06/17 09:58:50;;;;;;;2.35;0.52;;;28.10;99.90;;;;;;5065561;28;20036;-56
2023/06/17 10:01:17;;;;;;;3.50;0.73;;;28.00;99.90;;;;;;5065547;28;20025;-53
2023/06/17 10:03:45;;;;;;;3.42;0.63;;;28.10;99.90;;;;;;5065652;28;20017;-56
2023/06/17 10:06:13;;;;;;;1.67;0.63;;;28.00;99.90;;;;;;5065385;28;20029;-64
2023/06/17 10:08:49;;;;;;;3.35;0.60;;;28.00;99.90;;;;;;5065509;28;20028;-53
2023/06/17 10:11:19;;;;;;;3.85;0.60;;;28.00;99.90;;;;;;5065764;28;20053;-56
2023/06/17 10:13:56;;;;;;;1.25;0.57;;;28.00;99.90;;;;;;5065401;28;20233;-52
2023/06/17 10:16:26;;;;;;;3.80;0.60;;;28.00;99.90;;;;;;5077600;28;20059;-54
2023/06/17 10:18:55;;;;;;;1.75;0.60;;;28.00;99.90;;;;;;5085116;28;20028;-56
2023/06/17 10:21:26;;;;;;;4.28;0.70;;;28.00;99.90;;;;;;5085531;28;20059;-54
2023/06/17 10:23:54;;;;;;;2.72;0.50;;;28.00;99.90;;;;;;5085363;28;20032;-54
2023/06/17 10:26:21;;;;;;;1.52;0.60;;;28.00;99.90;;;;;;5085368;28;20107;-55
2023/06/17 10:28:54;;;;;;;2.85;0.60;;;28.00;99.90;;;;;;5085171;28;20202;-54
2023/06/17 10:31:27;;;;;;;1.80;0.50;;;28.00;99.90;;;;;;5085152;28;20032;-52
2023/06/17 10:33:54;;;;;;;2.03;0.50;;;27.90;99.90;;;;;;5085335;28;20048;-52
2023/06/17 10:36:21;;;;;;;2.83;0.50;;;28.00;99.90;;;;;;5085199;28;20059;-57
2023/06/17 10:39:03;;;;;;;1.35;0.40;;;27.90;99.90;;;;;;5084753;28;20351;-55
2023/06/17 10:41:39;;;;;;;1.08;0.30;;;27.90;99.90;;;;;;5085218;28;20055;-53
2023/06/17 10:44:26;;;;;;;2.60;1.50;;;27.90;99.90;;;;;;5084736;28;20012;-56
2023/06/17 10:46:53;;;;;;;4.90;2.13;;;28.00;99.90;;;;;;5084720;28;20039;-56
2023/06/17 10:49:20;;;;;;;3.97;2.25;;;27.90;99.90;;;;;;5084605;28;20079;-57
2023/06/17 10:51:51;;;;;;;5.95;2.20;;;28.00;99.90;;;;;;5085144;28;20043;-55
2023/06/17 10:54:31;;;;;;;1.95;1.23;;;28.00;99.90;;;;;;5084021;28;20043;-55
2023/06/17 10:57:00;;;;;;;3.28;1.30;;;28.00;99.90;;;;;;5085008;28;20317;-54
2023/06/17 10:59:31;;;;;;;1.83;0.80;;;28.00;99.90;;;;;;5084494;28;20037;-52
2023/06/17 11:02:07;;;;;;;3.58;1.10;;;28.00;99.90;;;;;;5084857;28;20099;-54
2023/06/17 11:04:43;;;;;;;2.83;1.30;;;28.00;99.90;;;;;;5084503;28;20087;-56
2023/06/17 11:07:10;;;;;;;4.25;1.08;;;28.00;99.90;;;;;;5084807;28;20040;-54
2023/06/17 11:09:37;;;;;;;2.65;0.93;;;28.00;99.90;;;;;;5084605;28;20031;-56
2023/06/17 11:12:04;;;;;;;4.68;1.25;;;28.00;99.90;;;;;;5084631;28;20233;-56
2023/06/17 11:14:32;;;;;;;1.58;0.73;;;28.10;99.90;;;;;;5084218;28;20023;-55
2023/06/17 11:17:00;;;;;;;1.33;0.82;;;28.10;99.90;;;;;;5084722;28;20048;-56
2023/06/17 11:19:26;;;;;;;2.03;0.80;;;28.10;99.90;;;;;;5084302;28;20020;-56
2023/06/17 11:22:02;;;;;;;3.60;1.00;;;28.00;99.90;;;;;;5084432;28;20021;-57
2023/06/17 11:24:30;;;;;;;0.55;0.50;;;28.10;99.90;;;;;;5084134;28;20220;-56
2023/06/17 11:26:58;;;;;;;1.35;0.60;;;28.10;99.90;;;;;;5084475;28;20092;-56
2023/06/17 11:29:26;;;;;;;2.65;0.57;;;28.10;99.90;;;;;;5083987;28;20063;-52
2023/06/17 11:31:59;;;;;;;1.60;0.60;;;28.10;99.90;;;;;;5084549;28;20024;-54
2023/06/17 11:34:32;;;;;;;3.35;0.63;;;28.10;99.90;;;;;;5084042;28;20242;-57
2023/06/17 11:37:02;;;;;;;5.28;0.70;;;28.10;99.90;;;;;;5084513;28;20316;-57
2023/06/17 11:39:31;;;;;;;2.13;0.70;;;28.10;99.90;;;;;;5084066;28;20036;-61
2023/06/17 11:42:02;;;;;;;1.80;0.65;;;28.10;99.90;;;;;;5084175;28;20021;-62
2023/06/17 11:44:30;;;;;;;2.58;0.52;;;28.10;99.90;;;;;;5083972;28;20024;-58
2023/06/17 11:47:02;;;;;;;3.28;0.47;;;28.10;99.90;;;;;;5084331;28;20059;-54
2023/06/17 11:49:28;;;;;;;4.97;0.93;;;28.10;99.90;;;;;;5083710;28;20036;-58
2023/06/17 11:51:59;;;;;;;6.50;0.80;;;28.10;99.90;;;;;;5084348;28;20100;-58
2023/06/17 11:54:26;;;;;;;2.20;0.65;;;28.20;99.90;;;;;;5082834;28;20307;-57
2023/06/17 11:56:54;;;;;;;3.42;0.70;;;28.20;99.90;;;;;;5084152;28;20032;-56
2023/06/17 11:59:21;;;;;;;2.30;0.85;;;28.20;99.90;;;;;;5083641;28;20037;-56
2023/06/17 12:01:48;;;;;;;1.60;0.98;;;28.20;99.90;;;;;;5084188;28;20059;-55
2023/06/17 12:04:15;;;;;;;1.65;0.90;;;28.20;99.90;;;;;;5083267;28;20297;-54
2023/06/17 12:06:42;;;;;;;4.30;0.80;;;28.20;99.90;;;;;;5085208;28;20029;-50
2023/06/17 12:09:10;;;;;;;3.25;0.90;;;28.20;99.90;;;;;;5087867;28;20055;-53
2023/06/17 12:11:41;;;;;;;1.52;0.80;;;28.20;99.90;;;;;;5087992;28;20080;-53
2023/06/17 12:14:09;;;;;;;1.30;0.60;;;28.20;99.90;;;;;;5087805;28;20048;-56
2023/06/17 12:16:38;;;;;;;4.45;0.50;;;28.20;99.90;;;;;;5087912;28;20033;-56
2023/06/17 12:19:07;;;;;;;1.20;0.47;;;28.20;99.90;;;;;;5087544;28;20038;-56
2023/06/17 12:21:36;;;;;;;15.38;1.05;;;28.10;99.90;;;;;;5087821;28;20021;-56
2023/06/17 12:24:05;;;;;;;5.53;0.70;;;28.10;99.90;;;;;;5087379;28;20059;-55
2023/06/17 12:26:32;;;;;;;2.67;0.55;;;28.00;99.90;;;;;;5087896;28;20028;-52
2023/06/17 12:28:59;;;;;;;2.28;0.50;;;28.10;99.90;;;;;;5087542;28;20023;-56
2023/06/17 12:31:26;;;;;;;0.85;0.40;;;28.00;99.90;;;;;;5087141;28;20035;-53
2023/06/17 12:33:53;;;;;;;0.50;0.40;;;28.00;99.90;;;;;;5087341;28;20066;-55
2023/06/17 12:36:19;;;;;;;0.30;0.30;;;28.00;99.90;;;;;;5087527;28;20028;-56
2023/06/17 12:38:48;;;;;;;1.05;0.30;;;28.00;99.90;;;;;;5087009;28;20050;-53
2023/06/17 12:41:14;;;;;;;1.23;0.60;;;28.00;99.90;;;;;;5087442;28;20035;-58
2023/06/17 12:43:41;;;;;;;2.17;0.65;;;28.00;99.90;;;;;;5087068;28;20012;-54
2023/06/17 12:46:08;;;;;;;3.70;0.73;;;27.90;99.90;;;;;;5086343;28;20025;-57
2023/06/17 12:48:34;;;;;;;1.67;0.63;;;27.90;99.90;;;;;;5087034;28;20091;-56